Terminal Aerodrome Forecast
Issued by NWS Milwaukee/Sullivan, WI

Current Version | Previous Version | Text Only | Print | Product List | Glossary On
Versions: 1 2 3 4 5 6 7 8 9 10 11 12 13 14 15 16 17 18 19 20 21 22 23 24 25 26 27 28 29 30 31 32 33 34 35 36 37 38 39 40 41 42 43 44
000
FTUS43 KMKX 280906 AAA
TAFMSN
TAF AMD
KMSN 280906Z 2809/2906 VRB03KT P6SM SKC
     FM281400 29006KT P6SM FEW250
     FM282300 VRB03KT P6SM SCT200
     FM290500 02005KT P6SM BKN100=

USA.gov is the U.S. government's official web portal to all federal, state and local government web resources and services.